sensor_id;sensor_type;location;lat;lon;timestamp;temperature;humidity
75451;DHT22;64029;48.244;9.188;2023-03-12T00:01:54;-0.90;66.80
75451;DHT22;64029;48.244;9.188;2023-03-12T00:04:21;-1.00;66.80
75451;DHT22;64029;48.244;9.188;2023-03-12T00:06:47;-1.00;67.20
75451;DHT22;64029;48.244;9.188;2023-03-12T00:09:14;-1.00;67.00
75451;DHT22;64029;48.244;9.188;2023-03-12T00:11:42;-1.00;67.00
75451;DHT22;64029;48.244;9.188;2023-03-12T00:14:09;-1.00;67.00
75451;DHT22;64029;48.244;9.188;2023-03-12T00:16:36;-1.00;67.30
75451;DHT22;64029;48.244;9.188;2023-03-12T00:19:03;-1.00;67.20
75451;DHT22;64029;48.244;9.188;2023-03-12T00:21:30;-1.00;67.20
75451;DHT22;64029;48.244;9.188;2023-03-12T00:23:57;-1.00;67.50
75451;DHT22;64029;48.244;9.188;2023-03-12T00:26:23;-1.10;67.40
75451;DHT22;64029;48.244;9.188;2023-03-12T00:28:52;-1.10;68.00
75451;DHT22;64029;48.244;9.188;2023-03-12T00:31:20;-1.00;68.50
75451;DHT22;64029;48.244;9.188;2023-03-12T00:33:47;-1.00;69.40
75451;DHT22;64029;48.244;9.188;2023-03-12T00:36:14;-1.10;68.10
75451;DHT22;64029;48.244;9.188;2023-03-12T00:38:42;-1.10;68.40
75451;DHT22;64029;48.244;9.188;2023-03-12T00:41:09;-1.10;69.00
75451;DHT22;64029;48.244;9.188;2023-03-12T00:43:35;-1.10;69.70
75451;DHT22;64029;48.244;9.188;2023-03-12T00:46:04;-1.10;69.00
75451;DHT22;64029;48.244;9.188;2023-03-12T00:48:31;-1.10;69.80
75451;DHT22;64029;48.244;9.188;2023-03-12T00:50:57;-1.10;69.60
75451;DHT22;64029;48.244;9.188;2023-03-12T00:53:24;-1.20;69.70
75451;DHT22;64029;48.244;9.188;2023-03-12T00:55:51;-1.20;69.60
75451;DHT22;64029;48.244;9.188;2023-03-12T00:58:18;-1.20;69.40
75451;DHT22;64029;48.244;9.188;2023-03-12T01:00:45;-1.20;70.10
75451;DHT22;64029;48.244;9.188;2023-03-12T01:03:13;-1.20;70.80
75451;DHT22;64029;48.244;9.188;2023-03-12T01:05:40;-1.20;70.40
75451;DHT22;64029;48.244;9.188;2023-03-12T01:08:08;-1.30;69.80
75451;DHT22;64029;48.244;9.188;2023-03-12T01:10:36;-1.30;69.70
75451;DHT22;64029;48.244;9.188;2023-03-12T01:13:03;-1.30;69.40
75451;DHT22;64029;48.244;9.188;2023-03-12T01:15:30;-1.30;70.20
75451;DHT22;64029;48.244;9.188;2023-03-12T01:17:57;-1.30;69.80
75451;DHT22;64029;48.244;9.188;2023-03-12T01:20:25;-1.30;69.60
75451;DHT22;64029;48.244;9.188;2023-03-12T01:22:52;-1.30;69.40
75451;DHT22;64029;48.244;9.188;2023-03-12T01:25:19;-1.30;69.40
75451;DHT22;64029;48.244;9.188;2023-03-12T01:27:45;-1.30;69.60
75451;DHT22;64029;48.244;9.188;2023-03-12T01:30:13;-1.30;69.40
75451;DHT22;64029;48.244;9.188;2023-03-12T01:32:39;-1.30;69.80
75451;DHT22;64029;48.244;9.188;2023-03-12T01:35:07;-1.30;70.20
75451;DHT22;64029;48.244;9.188;2023-03-12T01:37:35;-1.30;70.00
75451;DHT22;64029;48.244;9.188;2023-03-12T01:40:03;-1.30;70.10
75451;DHT22;64029;48.244;9.188;2023-03-12T01:42:30;-1.30;70.30
75451;DHT22;64029;48.244;9.188;2023-03-12T01:44:59;-1.30;70.10
75451;DHT22;64029;48.244;9.188;2023-03-12T01:47:27;-1.30;69.90
75451;DHT22;64029;48.244;9.188;2023-03-12T01:49:57;-1.20;70.70
75451;DHT22;64029;48.244;9.188;2023-03-12T01:52:27;-1.30;71.40
75451;DHT22;64029;48.244;9.188;2023-03-12T01:54:59;-1.20;70.70
75451;DHT22;64029;48.244;9.188;2023-03-12T01:57:31;-1.20;71.60
75451;DHT22;64029;48.244;9.188;2023-03-12T02:00:03;-1.20;71.50
75451;DHT22;64029;48.244;9.188;2023-03-12T02:02:32;-1.20;71.70
75451;DHT22;64029;48.244;9.188;2023-03-12T02:05:04;-1.20;71.10
75451;DHT22;64029;48.244;9.188;2023-03-12T02:07:32;-1.20;70.80
75451;DHT22;64029;48.244;9.188;2023-03-12T02:10:01;-1.20;71.70
75451;DHT22;64029;48.244;9.188;2023-03-12T02:12:29;-1.20;71.10
75451;DHT22;64029;48.244;9.188;2023-03-12T02:14:56;-1.20;71.60
75451;DHT22;64029;48.244;9.188;2023-03-12T02:17:25;-1.20;71.30
75451;DHT22;64029;48.244;9.188;2023-03-12T02:19:59;-1.10;71.90
75451;DHT22;64029;48.244;9.188;2023-03-12T02:22:33;-1.10;71.40
75451;DHT22;64029;48.244;9.188;2023-03-12T02:25:11;-1.10;71.50
75451;DHT22;64029;48.244;9.188;2023-03-12T02:27:39;-1.10;72.10
75451;DHT22;64029;48.244;9.188;2023-03-12T02:30:07;-1.10;72.00
75451;DHT22;64029;48.244;9.188;2023-03-12T02:32:37;-1.10;71.80
75451;DHT22;64029;48.244;9.188;2023-03-12T02:35:05;-1.10;71.80
75451;DHT22;64029;48.244;9.188;2023-03-12T02:37:32;-1.00;71.90
75451;DHT22;64029;48.244;9.188;2023-03-12T02:40:02;-1.10;71.40
75451;DHT22;64029;48.244;9.188;2023-03-12T02:42:32;-1.10;71.90
75451;DHT22;64029;48.244;9.188;2023-03-12T02:44:59;-1.00;72.10
75451;DHT22;64029;48.244;9.188;2023-03-12T02:47:27;-1.00;72.00
75451;DHT22;64029;48.244;9.188;2023-03-12T02:49:54;-1.00;72.00
75451;DHT22;64029;48.244;9.188;2023-03-12T02:52:21;-1.00;71.50
75451;DHT22;64029;48.244;9.188;2023-03-12T02:54:47;-1.00;71.50
75451;DHT22;64029;48.244;9.188;2023-03-12T02:57:14;-1.00;72.00
75451;DHT22;64029;48.244;9.188;2023-03-12T02:59:43;-0.90;72.80
75451;DHT22;64029;48.244;9.188;2023-03-12T03:02:10;-0.90;72.30
75451;DHT22;64029;48.244;9.188;2023-03-12T03:04:37;-0.90;72.30
75451;DHT22;64029;48.244;9.188;2023-03-12T03:07:04;-0.90;72.10
75451;DHT22;64029;48.244;9.188;2023-03-12T03:09:31;-0.90;72.10
75451;DHT22;64029;48.244;9.188;2023-03-12T03:11:58;-0.90;71.70
75451;DHT22;64029;48.244;9.188;2023-03-12T03:14:25;-0.80;72.30
75451;DHT22;64029;48.244;9.188;2023-03-12T03:16:53;-0.80;72.00
75451;DHT22;64029;48.244;9.188;2023-03-12T03:19:20;-0.80;72.40
75451;DHT22;64029;48.244;9.188;2023-03-12T03:21:47;-0.80;72.40
75451;DHT22;64029;48.244;9.188;2023-03-12T03:24:13;-0.80;72.00
75451;DHT22;64029;48.244;9.188;2023-03-12T03:26:41;-0.80;71.60
75451;DHT22;64029;48.244;9.188;2023-03-12T03:29:08;-0.80;72.40
75451;DHT22;64029;48.244;9.188;2023-03-12T03:31:35;-0.80;72.40
75451;DHT22;64029;48.244;9.188;2023-03-12T03:34:03;-0.80;72.80
75451;DHT22;64029;48.244;9.188;2023-03-12T03:36:30;-0.80;72.70
75451;DHT22;64029;48.244;9.188;2023-03-12T03:38:57;-0.80;72.60
75451;DHT22;64029;48.244;9.188;2023-03-12T03:41:24;-0.80;72.50
75451;DHT22;64029;48.244;9.188;2023-03-12T03:43:55;-0.70;72.60
75451;DHT22;64029;48.244;9.188;2023-03-12T03:46:21;-0.70;72.60
75451;DHT22;64029;48.244;9.188;2023-03-12T03:48:48;-0.70;72.40
75451;DHT22;64029;48.244;9.188;2023-03-12T03:51:17;-0.70;72.50
75451;DHT22;64029;48.244;9.188;2023-03-12T03:53:44;-0.70;72.80
75451;DHT22;64029;48.244;9.188;2023-03-12T03:56:13;-0.70;72.80
75451;DHT22;64029;48.244;9.188;2023-03-12T03:58:40;-0.60;72.70
75451;DHT22;64029;48.244;9.188;2023-03-12T04:01:07;-0.60;72.80
75451;DHT22;64029;48.244;9.188;2023-03-12T04:03:34;-0.60;72.90
75451;DHT22;64029;48.244;9.188;2023-03-12T04:06:02;-0.60;72.60
75451;DHT22;64029;48.244;9.188;2023-03-12T04:08:32;-0.60;72.50
75451;DHT22;64029;48.244;9.188;2023-03-12T04:11:05;-0.60;73.00
75451;DHT22;64029;48.244;9.188;2023-03-12T04:13:33;-0.60;72.80
75451;DHT22;64029;48.244;9.188;2023-03-12T04:16:00;-0.60;72.60
75451;DHT22;64029;48.244;9.188;2023-03-12T04:18:27;-0.60;72.70
75451;DHT22;64029;48.244;9.188;2023-03-12T04:20:53;-0.60;72.70
75451;DHT22;64029;48.244;9.188;2023-03-12T04:23:22;-0.60;72.70
75451;DHT22;64029;48.244;9.188;2023-03-12T04:25:50;-0.50;73.40
75451;DHT22;64029;48.244;9.188;2023-03-12T04:28:17;-0.50;72.80
75451;DHT22;64029;48.244;9.188;2023-03-12T04:30:44;-0.50;73.40
75451;DHT22;64029;48.244;9.188;2023-03-12T04:33:10;-0.40;73.80
75451;DHT22;64029;48.244;9.188;2023-03-12T04:35:37;-0.50;73.50
75451;DHT22;64029;48.244;9.188;2023-03-12T04:38:04;-0.40;73.30
75451;DHT22;64029;48.244;9.188;2023-03-12T04:40:31;-0.40;73.50
75451;DHT22;64029;48.244;9.188;2023-03-12T04:42:59;-0.40;73.90
75451;DHT22;64029;48.244;9.188;2023-03-12T04:45:26;-0.40;73.80
75451;DHT22;64029;48.244;9.188;2023-03-12T04:47:53;-0.40;73.80
75451;DHT22;64029;48.244;9.188;2023-03-12T04:50:19;-0.40;74.00
75451;DHT22;64029;48.244;9.188;2023-03-12T04:52:46;-0.30;74.10
75451;DHT22;64029;48.244;9.188;2023-03-12T04:55:13;-0.30;73.50
75451;DHT22;64029;48.244;9.188;2023-03-12T04:57:40;-0.30;73.70
75451;DHT22;64029;48.244;9.188;2023-03-12T05:00:09;-0.30;73.30
75451;DHT22;64029;48.244;9.188;2023-03-12T05:02:37;-0.30;74.20
75451;DHT22;64029;48.244;9.188;2023-03-12T05:05:05;-0.30;73.30
75451;DHT22;64029;48.244;9.188;2023-03-12T05:07:32;-0.30;73.50
75451;DHT22;64029;48.244;9.188;2023-03-12T05:09:59;-0.30;73.70
75451;DHT22;64029;48.244;9.188;2023-03-12T05:12:25;-0.20;73.80
75451;DHT22;64029;48.244;9.188;2023-03-12T05:14:52;-0.20;73.80
75451;DHT22;64029;48.244;9.188;2023-03-12T05:17:20;-0.20;74.00
75451;DHT22;64029;48.244;9.188;2023-03-12T05:19:48;-0.20;74.50
75451;DHT22;64029;48.244;9.188;2023-03-12T05:22:14;-0.20;74.30
75451;DHT22;64029;48.244;9.188;2023-03-12T05:24:41;-0.20;74.00
75451;DHT22;64029;48.244;9.188;2023-03-12T05:27:08;-0.20;73.80
75451;DHT22;64029;48.244;9.188;2023-03-12T05:29:36;-0.10;73.70
75451;DHT22;64029;48.244;9.188;2023-03-12T05:32:03;-0.10;73.80
75451;DHT22;64029;48.244;9.188;2023-03-12T05:34:33;-0.10;73.80
75451;DHT22;64029;48.244;9.188;2023-03-12T05:37:00;-0.10;73.80
75451;DHT22;64029;48.244;9.188;2023-03-12T05:39:27;0.00;73.70
75451;DHT22;64029;48.244;9.188;2023-03-12T05:41:54;0.00;73.70
75451;DHT22;64029;48.244;9.188;2023-03-12T05:44:22;0.00;73.80
75451;DHT22;64029;48.244;9.188;2023-03-12T05:46:49;0.00;73.70
75451;DHT22;64029;48.244;9.188;2023-03-12T05:49:16;0.10;74.80
75451;DHT22;64029;48.244;9.188;2023-03-12T05:51:45;0.00;74.40
75451;DHT22;64029;48.244;9.188;2023-03-12T05:54:12;0.00;74.40
75451;DHT22;64029;48.244;9.188;2023-03-12T05:56:39;0.10;74.30
75451;DHT22;64029;48.244;9.188;2023-03-12T05:59:06;0.10;74.40
75451;DHT22;64029;48.244;9.188;2023-03-12T06:01:35;0.10;74.60
75451;DHT22;64029;48.244;9.188;2023-03-12T06:04:02;0.10;74.20
75451;DHT22;64029;48.244;9.188;2023-03-12T06:06:29;0.10;74.40
75451;DHT22;64029;48.244;9.188;2023-03-12T06:08:57;0.10;74.20
75451;DHT22;64029;48.244;9.188;2023-03-12T06:11:24;0.10;74.20
75451;DHT22;64029;48.244;9.188;2023-03-12T06:13:51;0.10;75.20
75451;DHT22;64029;48.244;9.188;2023-03-12T06:16:19;0.20;74.70
75451;DHT22;64029;48.244;9.188;2023-03-12T06:18:47;0.20;74.80
75451;DHT22;64029;48.244;9.188;2023-03-12T06:21:16;0.20;74.70
75451;DHT22;64029;48.244;9.188;2023-03-12T06:23:43;0.30;74.70
75451;DHT22;64029;48.244;9.188;2023-03-12T06:26:13;0.20;74.90
75451;DHT22;64029;48.244;9.188;2023-03-12T06:28:40;0.30;75.00
75451;DHT22;64029;48.244;9.188;2023-03-12T06:31:07;0.30;74.60
75451;DHT22;64029;48.244;9.188;2023-03-12T06:33:35;0.30;74.80
75451;DHT22;64029;48.244;9.188;2023-03-12T06:36:04;0.40;75.00
75451;DHT22;64029;48.244;9.188;2023-03-12T06:38:31;0.40;75.40
75451;DHT22;64029;48.244;9.188;2023-03-12T06:40:59;0.40;74.90
75451;DHT22;64029;48.244;9.188;2023-03-12T06:43:30;0.40;75.00
75451;DHT22;64029;48.244;9.188;2023-03-12T06:45:58;0.40;75.10
75451;DHT22;64029;48.244;9.188;2023-03-12T06:48:27;0.40;75.00
75451;DHT22;64029;48.244;9.188;2023-03-12T06:50:54;0.40;75.00
75451;DHT22;64029;48.244;9.188;2023-03-12T06:53:21;0.50;75.80
75451;DHT22;64029;48.244;9.188;2023-03-12T06:55:50;0.50;75.70
75451;DHT22;64029;48.244;9.188;2023-03-12T06:58:17;0.50;75.60
75451;DHT22;64029;48.244;9.188;2023-03-12T07:00:46;0.50;75.40
75451;DHT22;64029;48.244;9.188;2023-03-12T07:03:12;0.50;76.00
75451;DHT22;64029;48.244;9.188;2023-03-12T07:05:43;0.50;75.40
75451;DHT22;64029;48.244;9.188;2023-03-12T07:08:09;0.60;75.50
75451;DHT22;64029;48.244;9.188;2023-03-12T07:10:36;0.60;75.50
75451;DHT22;64029;48.244;9.188;2023-03-12T07:13:03;0.60;75.50
75451;DHT22;64029;48.244;9.188;2023-03-12T07:15:30;0.60;75.60
75451;DHT22;64029;48.244;9.188;2023-03-12T07:18:00;0.70;75.80
75451;DHT22;64029;48.244;9.188;2023-03-12T07:20:27;0.70;76.10
75451;DHT22;64029;48.244;9.188;2023-03-12T07:22:53;0.80;76.60
75451;DHT22;64029;48.244;9.188;2023-03-12T07:25:20;0.90;76.50
75451;DHT22;64029;48.244;9.188;2023-03-12T07:27:47;0.90;76.20
75451;DHT22;64029;48.244;9.188;2023-03-12T07:30:14;0.90;76.50
75451;DHT22;64029;48.244;9.188;2023-03-12T07:32:41;0.90;76.30
75451;DHT22;64029;48.244;9.188;2023-03-12T07:35:09;1.00;77.20
75451;DHT22;64029;48.244;9.188;2023-03-12T07:37:36;1.00;76.70
75451;DHT22;64029;48.244;9.188;2023-03-12T07:40:04;1.10;76.80
75451;DHT22;64029;48.244;9.188;2023-03-12T07:42:31;1.10;77.50
75451;DHT22;64029;48.244;9.188;2023-03-12T07:44:58;1.10;77.50
75451;DHT22;64029;48.244;9.188;2023-03-12T07:47:25;1.20;77.10
75451;DHT22;64029;48.244;9.188;2023-03-12T07:49:52;1.20;77.00
75451;DHT22;64029;48.244;9.188;2023-03-12T07:52:20;1.30;78.60
75451;DHT22;64029;48.244;9.188;2023-03-12T07:54:48;1.40;78.80
75451;DHT22;64029;48.244;9.188;2023-03-12T07:57:16;1.40;77.70
75451;DHT22;64029;48.244;9.188;2023-03-12T07:59:44;1.50;78.10
75451;DHT22;64029;48.244;9.188;2023-03-12T08:02:11;1.60;79.60
75451;DHT22;64029;48.244;9.188;2023-03-12T08:04:38;1.60;78.30
75451;DHT22;64029;48.244;9.188;2023-03-12T08:07:05;1.70;79.20
75451;DHT22;64029;48.244;9.188;2023-03-12T08:09:33;1.80;79.90
75451;DHT22;64029;48.244;9.188;2023-03-12T08:12:00;1.90;80.50
75451;DHT22;64029;48.244;9.188;2023-03-12T08:14:27;2.10;80.80
75451;DHT22;64029;48.244;9.188;2023-03-12T08:16:56;2.10;81.20
75451;DHT22;64029;48.244;9.188;2023-03-12T08:19:23;2.30;81.30
75451;DHT22;64029;48.244;9.188;2023-03-12T08:21:50;2.40;83.70
75451;DHT22;64029;48.244;9.188;2023-03-12T08:24:18;2.40;82.90
75451;DHT22;64029;48.244;9.188;2023-03-12T08:26:47;2.50;84.50
75451;DHT22;64029;48.244;9.188;2023-03-12T08:29:14;2.60;82.10
75451;DHT22;64029;48.244;9.188;2023-03-12T08:31:41;2.60;83.50
75451;DHT22;64029;48.244;9.188;2023-03-12T08:34:08;2.70;82.20
75451;DHT22;64029;48.244;9.188;2023-03-12T08:36:35;2.80;86.10
75451;DHT22;64029;48.244;9.188;2023-03-12T08:39:02;2.90;85.00
75451;DHT22;64029;48.244;9.188;2023-03-12T08:41:29;3.10;87.70
75451;DHT22;64029;48.244;9.188;2023-03-12T08:43:58;3.10;85.50
75451;DHT22;64029;48.244;9.188;2023-03-12T08:46:24;3.10;85.50
75451;DHT22;64029;48.244;9.188;2023-03-12T08:48:51;3.20;85.50
75451;DHT22;64029;48.244;9.188;2023-03-12T08:51:18;3.30;87.30
75451;DHT22;64029;48.244;9.188;2023-03-12T08:53:45;3.30;85.40
75451;DHT22;64029;48.244;9.188;2023-03-12T08:56:12;3.30;85.50
75451;DHT22;64029;48.244;9.188;2023-03-12T08:58:39;3.40;84.10
75451;DHT22;64029;48.244;9.188;2023-03-12T09:01:09;3.40;85.50
75451;DHT22;64029;48.244;9.188;2023-03-12T09:03:36;3.60;88.90
75451;DHT22;64029;48.244;9.188;2023-03-12T09:06:05;3.60;86.40
75451;DHT22;64029;48.244;9.188;2023-03-12T09:08:34;3.70;86.30
75451;DHT22;64029;48.244;9.188;2023-03-12T09:11:01;3.70;85.00
75451;DHT22;64029;48.244;9.188;2023-03-12T09:13:28;3.70;84.20
75451;DHT22;64029;48.244;9.188;2023-03-12T09:15:58;3.70;84.30
75451;DHT22;64029;48.244;9.188;2023-03-12T09:18:26;3.80;84.30
75451;DHT22;64029;48.244;9.188;2023-03-12T09:20:55;3.80;83.90
75451;DHT22;64029;48.244;9.188;2023-03-12T09:23:22;3.90;84.80
75451;DHT22;64029;48.244;9.188;2023-03-12T09:25:49;3.90;84.50
75451;DHT22;64029;48.244;9.188;2023-03-12T09:28:16;3.90;85.40
75451;DHT22;64029;48.244;9.188;2023-03-12T09:30:44;4.00;84.60
75451;DHT22;64029;48.244;9.188;2023-03-12T09:33:11;4.00;84.70
75451;DHT22;64029;48.244;9.188;2023-03-12T09:35:41;4.10;87.90
75451;DHT22;64029;48.244;9.188;2023-03-12T09:38:11;4.20;87.30
75451;DHT22;64029;48.244;9.188;2023-03-12T09:40:38;4.20;85.30
75451;DHT22;64029;48.244;9.188;2023-03-12T09:43:15;4.20;85.80
75451;DHT22;64029;48.244;9.188;2023-03-12T09:45:45;4.20;84.90
75451;DHT22;64029;48.244;9.188;2023-03-12T09:48:14;4.20;85.70
75451;DHT22;64029;48.244;9.188;2023-03-12T09:50:45;4.30;85.10
75451;DHT22;64029;48.244;9.188;2023-03-12T09:53:20;4.30;85.20
75451;DHT22;64029;48.244;9.188;2023-03-12T09:55:53;4.50;89.00
75451;DHT22;64029;48.244;9.188;2023-03-12T09:58:26;4.50;87.60
75451;DHT22;64029;48.244;9.188;2023-03-12T10:00:59;4.50;87.30
75451;DHT22;64029;48.244;9.188;2023-03-12T10:03:46;4.60;88.20
75451;DHT22;64029;48.244;9.188;2023-03-12T10:06:19;4.60;86.80
75451;DHT22;64029;48.244;9.188;2023-03-12T10:08:57;4.70;87.20
75451;DHT22;64029;48.244;9.188;2023-03-12T10:11:34;4.70;86.90
75451;DHT22;64029;48.244;9.188;2023-03-12T10:14:11;4.80;87.00
75451;DHT22;64029;48.244;9.188;2023-03-12T10:16:51;4.90;87.70
75451;DHT22;64029;48.244;9.188;2023-03-12T10:19:34;5.00;89.50
75451;DHT22;64029;48.244;9.188;2023-03-12T10:22:10;4.90;86.80
75451;DHT22;64029;48.244;9.188;2023-03-12T10:24:50;5.00;89.50
75451;DHT22;64029;48.244;9.188;2023-03-12T10:27:22;5.10;88.10
75451;DHT22;64029;48.244;9.188;2023-03-12T10:29:52;5.20;87.80
75451;DHT22;64029;48.244;9.188;2023-03-12T10:32:24;5.30;87.90
75451;DHT22;64029;48.244;9.188;2023-03-12T10:34:55;5.50;89.40
75451;DHT22;64029;48.244;9.188;2023-03-12T10:37:28;5.60;88.50
75451;DHT22;64029;48.244;9.188;2023-03-12T10:39:56;5.70;88.30
75451;DHT22;64029;48.244;9.188;2023-03-12T10:42:26;5.80;87.50
75451;DHT22;64029;48.244;9.188;2023-03-12T10:44:58;6.00;88.30
75451;DHT22;64029;48.244;9.188;2023-03-12T10:47:36;6.10;87.80
75451;DHT22;64029;48.244;9.188;2023-03-12T10:50:13;6.20;86.40
75451;DHT22;64029;48.244;9.188;2023-03-12T10:52:42;6.30;87.00
75451;DHT22;64029;48.244;9.188;2023-03-12T10:55:18;6.40;86.80
75451;DHT22;64029;48.244;9.188;2023-03-12T10:57:47;6.30;86.70
75451;DHT22;64029;48.244;9.188;2023-03-12T11:00:19;6.40;86.40
75451;DHT22;64029;48.244;9.188;2023-03-12T11:02:55;6.40;86.20
75451;DHT22;64029;48.244;9.188;2023-03-12T11:05:25;6.50;85.70
75451;DHT22;64029;48.244;9.188;2023-03-12T11:07:54;6.50;85.40
75451;DHT22;64029;48.244;9.188;2023-03-12T11:10:24;6.60;85.40
75451;DHT22;64029;48.244;9.188;2023-03-12T11:12:57;6.60;84.70
75451;DHT22;64029;48.244;9.188;2023-03-12T11:15:27;6.70;84.90
75451;DHT22;64029;48.244;9.188;2023-03-12T11:18:24;6.70;84.50
75451;DHT22;64029;48.244;9.188;2023-03-12T11:20:53;6.80;84.40
75451;DHT22;64029;48.244;9.188;2023-03-12T11:23:26;6.80;84.10
75451;DHT22;64029;48.244;9.188;2023-03-12T11:25:56;6.80;84.00
75451;DHT22;64029;48.244;9.188;2023-03-12T11:28:27;6.90;84.10
75451;DHT22;64029;48.244;9.188;2023-03-12T11:30:56;6.90;83.90
75451;DHT22;64029;48.244;9.188;2023-03-12T11:33:24;6.90;84.10
75451;DHT22;64029;48.244;9.188;2023-03-12T11:36:02;6.90;83.90
75451;DHT22;64029;48.244;9.188;2023-03-12T11:38:37;6.90;83.20
75451;DHT22;64029;48.244;9.188;2023-03-12T11:41:17;6.90;83.10
75451;DHT22;64029;48.244;9.188;2023-03-12T11:43:58;7.00;82.90
75451;DHT22;64029;48.244;9.188;2023-03-12T11:46:38;7.00;82.80
75451;DHT22;64029;48.244;9.188;2023-03-12T11:49:16;7.10;82.30
75451;DHT22;64029;48.244;9.188;2023-03-12T11:51:52;7.10;82.70
75451;DHT22;64029;48.244;9.188;2023-03-12T11:57:23;7.20;81.90
75451;DHT22;64029;48.244;9.188;2023-03-12T12:00:02;7.30;82.40
75451;DHT22;64029;48.244;9.188;2023-03-12T12:03:03;7.30;81.80
75451;DHT22;64029;48.244;9.188;2023-03-12T12:05:39;7.30;81.00
75451;DHT22;64029;48.244;9.188;2023-03-12T12:11:08;7.40;81.50
75451;DHT22;64029;48.244;9.188;2023-03-12T12:13:45;7.40;81.10
75451;DHT22;64029;48.244;9.188;2023-03-12T12:16:33;7.40;80.80
75451;DHT22;64029;48.244;9.188;2023-03-12T12:19:14;7.40;80.20
75451;DHT22;64029;48.244;9.188;2023-03-12T12:22:00;7.50;80.80
75451;DHT22;64029;48.244;9.188;2023-03-12T12:24:39;7.50;80.40
75451;DHT22;64029;48.244;9.188;2023-03-12T12:27:16;7.50;80.60
75451;DHT22;64029;48.244;9.188;2023-03-12T12:30:08;7.60;80.80
75451;DHT22;64029;48.244;9.188;2023-03-12T12:32:53;7.60;79.00
75451;DHT22;64029;48.244;9.188;2023-03-12T12:35:26;7.70;78.50
75451;DHT22;64029;48.244;9.188;2023-03-12T12:37:58;7.70;79.00
75451;DHT22;64029;48.244;9.188;2023-03-12T12:40:30;7.80;80.00
75451;DHT22;64029;48.244;9.188;2023-03-12T12:43:14;7.80;78.80
75451;DHT22;64029;48.244;9.188;2023-03-12T12:45:46;7.80;78.80
75451;DHT22;64029;48.244;9.188;2023-03-12T12:48:17;7.90;79.20
75451;DHT22;64029;48.244;9.188;2023-03-12T12:50:46;7.90;79.30
75451;DHT22;64029;48.244;9.188;2023-03-12T12:53:20;7.90;79.90
75451;DHT22;64029;48.244;9.188;2023-03-12T12:55:54;7.90;79.00
75451;DHT22;64029;48.244;9.188;2023-03-12T12:58:44;7.90;78.10
75451;DHT22;64029;48.244;9.188;2023-03-12T13:01:16;7.90;78.60
75451;DHT22;64029;48.244;9.188;2023-03-12T13:03:45;7.90;76.80
75451;DHT22;64029;48.244;9.188;2023-03-12T13:06:12;7.90;77.60
75451;DHT22;64029;48.244;9.188;2023-03-12T13:09:01;7.90;78.30
75451;DHT22;64029;48.244;9.188;2023-03-12T13:11:39;8.00;77.60
75451;DHT22;64029;48.244;9.188;2023-03-12T13:14:21;8.00;78.00
75451;DHT22;64029;48.244;9.188;2023-03-12T13:16:48;8.00;77.70
75451;DHT22;64029;48.244;9.188;2023-03-12T13:19:24;7.90;77.20
75451;DHT22;64029;48.244;9.188;2023-03-12T13:21:59;7.90;77.10
75451;DHT22;64029;48.244;9.188;2023-03-12T13:24:30;8.00;77.40
75451;DHT22;64029;48.244;9.188;2023-03-12T13:27:04;8.00;78.60
75451;DHT22;64029;48.244;9.188;2023-03-12T13:29:37;8.00;77.60
75451;DHT22;64029;48.244;9.188;2023-03-12T13:32:08;8.00;77.40
75451;DHT22;64029;48.244;9.188;2023-03-12T13:34:44;8.00;78.00
75451;DHT22;64029;48.244;9.188;2023-03-12T13:37:26;8.10;77.90
75451;DHT22;64029;48.244;9.188;2023-03-12T13:39:53;8.10;78.40
75451;DHT22;64029;48.244;9.188;2023-03-12T13:42:37;8.10;78.30
75451;DHT22;64029;48.244;9.188;2023-03-12T13:45:24;8.20;79.10
75451;DHT22;64029;48.244;9.188;2023-03-12T13:47:56;8.20;78.80
75451;DHT22;64029;48.244;9.188;2023-03-12T13:50:24;8.20;78.80
75451;DHT22;64029;48.244;9.188;2023-03-12T13:53:01;8.30;78.20
75451;DHT22;64029;48.244;9.188;2023-03-12T13:55:29;8.30;78.30
75451;DHT22;64029;48.244;9.188;2023-03-12T13:58:00;8.30;79.20
75451;DHT22;64029;48.244;9.188;2023-03-12T14:00:37;8.30;79.40
75451;DHT22;64029;48.244;9.188;2023-03-12T14:03:12;8.30;78.50
75451;DHT22;64029;48.244;9.188;2023-03-12T14:05:50;8.30;77.90
75451;DHT22;64029;48.244;9.188;2023-03-12T14:11:27;8.30;78.10
75451;DHT22;64029;48.244;9.188;2023-03-12T14:14:23;8.40;78.60
75451;DHT22;64029;48.244;9.188;2023-03-12T14:16:56;8.40;77.70
75451;DHT22;64029;48.244;9.188;2023-03-12T14:19:24;8.50;77.70
75451;DHT22;64029;48.244;9.188;2023-03-12T14:21:53;8.50;78.40
75451;DHT22;64029;48.244;9.188;2023-03-12T14:24:27;8.50;77.20
75451;DHT22;64029;48.244;9.188;2023-03-12T14:26:56;8.50;77.30
75451;DHT22;64029;48.244;9.188;2023-03-12T14:29:27;8.60;76.70
75451;DHT22;64029;48.244;9.188;2023-03-12T14:31:57;8.60;76.20
75451;DHT22;64029;48.244;9.188;2023-03-12T14:34:26;8.60;75.90
75451;DHT22;64029;48.244;9.188;2023-03-12T14:36:59;8.60;77.50
75451;DHT22;64029;48.244;9.188;2023-03-12T14:39:32;8.60;75.60
75451;DHT22;64029;48.244;9.188;2023-03-12T14:42:01;8.70;76.00
75451;DHT22;64029;48.244;9.188;2023-03-12T14:44:30;8.70;76.60
75451;DHT22;64029;48.244;9.188;2023-03-12T14:47:00;8.70;75.90
75451;DHT22;64029;48.244;9.188;2023-03-12T14:49:29;8.70;76.10
75451;DHT22;64029;48.244;9.188;2023-03-12T14:51:56;8.70;75.70
75451;DHT22;64029;48.244;9.188;2023-03-12T14:54:25;8.70;75.80
75451;DHT22;64029;48.244;9.188;2023-03-12T14:56:52;8.80;74.10
75451;DHT22;64029;48.244;9.188;2023-03-12T14:59:25;8.80;73.70
75451;DHT22;64029;48.244;9.188;2023-03-12T15:01:56;8.80;74.10
75451;DHT22;64029;48.244;9.188;2023-03-12T15:04:25;8.80;73.70
75451;DHT22;64029;48.244;9.188;2023-03-12T15:06:54;8.80;74.40
75451;DHT22;64029;48.244;9.188;2023-03-12T15:09:23;8.80;74.70
75451;DHT22;64029;48.244;9.188;2023-03-12T15:11:54;8.80;73.20
75451;DHT22;64029;48.244;9.188;2023-03-12T15:14:22;8.80;74.70
75451;DHT22;64029;48.244;9.188;2023-03-12T15:16:50;8.80;74.00
75451;DHT22;64029;48.244;9.188;2023-03-12T15:19:20;8.80;73.40
75451;DHT22;64029;48.244;9.188;2023-03-12T15:21:49;8.80;73.70
75451;DHT22;64029;48.244;9.188;2023-03-12T15:24:16;8.80;75.30
75451;DHT22;64029;48.244;9.188;2023-03-12T15:26:44;8.90;73.90
75451;DHT22;64029;48.244;9.188;2023-03-12T15:29:22;8.90;74.00
75451;DHT22;64029;48.244;9.188;2023-03-12T15:31:53;8.90;72.60
75451;DHT22;64029;48.244;9.188;2023-03-12T15:34:29;8.90;72.00
75451;DHT22;64029;48.244;9.188;2023-03-12T15:37:00;8.80;71.20
75451;DHT22;64029;48.244;9.188;2023-03-12T15:39:30;8.90;71.80
75451;DHT22;64029;48.244;9.188;2023-03-12T15:42:00;8.90;70.60
75451;DHT22;64029;48.244;9.188;2023-03-12T15:44:42;8.90;71.90
75451;DHT22;64029;48.244;9.188;2023-03-12T15:47:12;8.90;72.10
75451;DHT22;64029;48.244;9.188;2023-03-12T15:49:40;8.90;70.60
75451;DHT22;64029;48.244;9.188;2023-03-12T15:52:28;8.90;71.50
75451;DHT22;64029;48.244;9.188;2023-03-12T15:55:00;8.90;71.60
75451;DHT22;64029;48.244;9.188;2023-03-12T15:57:29;8.90;71.40
75451;DHT22;64029;48.244;9.188;2023-03-12T16:00:18;8.90;73.40
75451;DHT22;64029;48.244;9.188;2023-03-12T16:02:48;8.90;72.10
75451;DHT22;64029;48.244;9.188;2023-03-12T16:05:16;9.00;72.80
75451;DHT22;64029;48.244;9.188;2023-03-12T16:07:44;8.90;70.70